Vilanova de Sau





Hora UTC 05:35
Temperatura 12.8 ºC
Humedad 99.0 %
Presión 1016.3 hPa
Pluja 0.1 mm
Velocidad viento 0.0 km/h
Dirección viento NNE
Radiación solar 35.3 W/m²
Fuel 435.1 %

Datos diarios 2020-05-30



Hora UTC (invierno +1h; verano +2h)
Temperatura (ºC) Humedad (%) Presión (hPa) Velocidad viento (km/h) Precipitación (mm) Fuel (%) Radiación solar (W/m²)
Hora UTC Aire Humedad Presión Vel. Dir. Vel. Max Dir. Intent. máx 5 min. Fuel Rad. Sol.
00:05 12.2 98.8 1016.3 0.0 NNE 0.0 SW 0.0 424.1 0.0
00:10 12.3 98.9 1016.2 0.0 NNE 0.0 W 0.0 424.1 0.0
00:15 12.1 98.7 1016.2 0.0 NNE 0.0 SW 0.0 424.2 0.0
00:20 12.1 98.8 1016.2 0.0 NNE 0.0 SSW 0.0 424.5 0.0
00:25 12.1 98.9 1016.3 0.0 NNE 0.0 SSW 0.0 425.3 0.0
00:30 12.2 99.1 1016.3 0.0 NNE 0.0 SSW 0.0 426.9 0.0
00:35 12.2 98.9 1016.3 0.0 NNE 0.0 WSW 0.0 427.6 0.0
00:40 12.1 98.8 1016.3 0.0 NNE 0.0 SW 0.0 427.8 0.0
00:45 12.1 98.8 1016.2 0.0 NNE 0.0 W 0.0 428.4 0.0
00:50 11.9 98.7 1016.2 0.0 NNE 0.0 SSW 0.0 428.8 0.0
00:55 11.9 99.0 1016.2 0.0 NNE 0.0 SSW 0.0 429.4 0.0
01:00 11.9 98.9 1016.2 0.0 NNE 0.0 SW 0.0 429.9 0.0
01:05 11.8 98.9 1016.3 0.0 NNE 0.0 SW 0.0 430.4 0.0
01:10 11.8 99.0 1016.3 0.0 NNE 0.0 SW 0.0 430.9 0.0
01:15 11.8 99.1 1016.3 0.0 NNE 0.0 SSW 0.1 431.6 0.0
01:20 11.8 99.1 1016.3 0.0 NNE 0.0 SW 0.0 432.3 0.0
01:25 11.8 99.1 1016.3 0.0 NNE 0.0 SW 0.0 432.8 0.0
01:30 11.8 99.1 1016.3 0.0 NNE 0.0 SW 0.0 433.5 0.0
01:35 11.7 99.0 1016.3 0.0 NNE 0.0 SW 0.0 433.9 0.0
01:40 11.7 99.2 1016.3 0.0 NNE 0.0 SW 0.0 434.6 0.0
01:45 11.7 99.1 1016.3 0.0 NNE 0.0 WSW 0.0 435.2 0.0
01:50 11.7 99.1 1016.3 0.0 NNE 0.0 SW 0.0 435.7 0.0
01:55 11.6 99.1 1016.4 0.0 NNE 0.0 SE 0.0 436.1 0.0
02:00 11.7 99.2 1016.4 0.0 NNE 0.0 S 0.0 436.7 0.0
02:05 11.6 99.0 1016.4 0.0 NNE 0.0 ESE 0.0 437.0 0.0
02:10 11.6 99.1 1016.4 0.1 WSW 3.4 WSW 0.0 437.3 0.0
02:15 11.6 99.2 1016.4 0.0 NNE 0.0 WSW 0.0 437.5 0.0
02:20 11.7 99.2 1016.4 0.1 SSW 3.4 SSW 0.0 437.5 0.0
02:25 11.8 99.4 1016.3 2.9 SW 8.8 SW 0.0 437.7 0.0
02:30 12.0 99.3 1016.3 0.5 SW 6.1 SSW 0.0 437.7 0.0
02:35 12.1 99.3 1016.3 1.3 WSW 6.1 SSW 0.0 438.0 0.0
02:40 12.2 99.3 1016.3 1.8 WSW 8.8 WSW 0.0 438.3 0.0
02:45 12.4 99.3 1016.3 2.5 WSW 8.8 WSW 0.0 438.3 0.0
02:50 12.3 99.0 1016.3 0.2 SW 3.4 WSW 0.0 438.1 0.0
02:55 12.2 99.0 1016.2 0.0 NNE 0.0 SW 0.0 438.2 0.0
03:00 12.2 99.1 1016.2 0.0 NNE 0.0 SW 0.0 438.4 0.0
03:05 12.1 99.0 1016.1 0.0 NNE 0.0 SW 0.0 438.7 0.0
03:10 12.0 99.0 1016.1 0.0 NNE 0.0 SW 0.0 439.1 0.0
03:15 12.0 98.9 1016.0 0.0 NNE 0.0 SW 0.0 439.6 0.0
03:20 11.8 98.8 1016.1 0.0 NNE 0.0 SW 0.0 440.0 0.0
03:25 11.6 98.9 1016.2 0.0 NNE 0.0 SW 0.0 440.3 0.0
03:30 11.8 99.1 1016.2 0.0 NNE 0.0 SW 0.0 440.8 0.0
03:35 11.6 98.9 1016.2 0.0 NNE 0.0 SW 0.0 440.8 0.0
03:40 11.7 99.1 1016.2 0.0 NNE 0.0 SW 0.0 440.8 0.0
03:45 11.8 99.2 1016.2 0.0 NNE 0.0 SW 0.0 440.9 0.0
03:50 12.0 99.3 1016.2 0.0 NNE 0.0 SW 0.0 441.1 0.0
03:55 12.1 99.3 1016.2 0.0 NNE 0.0 SW 0.0 441.1 0.0
04:00 12.2 99.3 1016.2 0.0 NNE 0.0 SW 0.0 441.1 0.1
04:05 12.2 99.2 1016.1 0.0 NNE 0.0 SW 0.0 441.1 0.3
04:10 12.3 99.2 1016.1 0.0 NNE 0.0 SW 0.0 441.1 0.8
04:15 12.3 99.2 1016.1 0.0 NNE 0.0 SW 0.0 441.2 1.5
04:20 12.3 99.1 1016.1 0.0 NNE 0.0 SW 0.0 441.1 2.4
04:25 12.4 99.3 1016.1 0.0 SSW 3.4 SSW 0.0 441.1 3.4
04:30 12.4 99.1 1016.1 0.0 SW 3.4 SW 0.0 440.8 4.7
04:35 12.4 99.1 1016.1 0.0 NNE 0.0 SSE 0.0 440.7 7.3
04:40 12.4 99.1 1016.1 0.0 NNE 0.0 S 0.0 440.5 9.4
04:45 12.5 99.1 1016.2 0.0 NNE 0.0 S 0.0 440.4 9.9
04:50 12.4 99.0 1016.2 0.0 NNE 0.0 SW 0.0 440.0 10.9
04:55 12.4 99.1 1016.2 0.0 NNE 0.0 SW 0.0 439.8 10.7
05:00 12.4 99.0 1016.2 0.0 NNE 0.0 SW 0.0 439.5 14.7
05:05 12.4 99.0 1016.2 0.0 NNE 0.0 S 0.0 439.1 17.3
05:10 12.6 99.2 1016.2 0.0 NNE 0.0 SSW 0.0 438.7 21.2
05:15 12.7 99.1 1016.2 0.0 NNE 0.0 S 0.0 438.2 19.5
05:20 12.6 99.0 1016.3 0.0 NNE 0.0 SSW 0.0 437.4 22.6
05:25 12.7 99.0 1016.3 0.0 NNE 0.0 SSW 0.0 436.7 36.3
05:30 12.8 99.1 1016.3 0.3 SSW 6.1 SSW 0.0 435.9 38.9
05:35 12.8 99.0 1016.3 0.0 NNE 0.0 SW 0.0 435.1 35.3
Máxima 12.9 99.4 1016.4 2.9 SW 8.8 WSW 0.1 441.2 38.9
Mínima 11.5 98.7 1016.0 424.1
Total 0.1